sensor_id;sensor_type;location;lat;lon;timestamp;pressure;altitude;pressure_sealevel;temperature;humidity
11099;BME280;12223;42.650;23.364;2023-05-10T00:01:29;94765.75;;;9.09;100.00
11099;BME280;12223;42.650;23.364;2023-05-10T00:03:56;94769.94;;;9.17;100.00
11099;BME280;12223;42.650;23.364;2023-05-10T00:06:23;94775.97;;;9.24;100.00
11099;BME280;12223;42.650;23.364;2023-05-10T00:08:50;94781.66;;;9.27;100.00
11099;BME280;12223;42.650;23.364;2023-05-10T00:11:18;94784.09;;;9.29;100.00
11099;BME280;12223;42.650;23.364;2023-05-10T00:13:46;94786.75;;;9.22;100.00
11099;BME280;12223;42.650;23.364;2023-05-10T00:16:12;94792.25;;;9.14;100.00
11099;BME280;12223;42.650;23.364;2023-05-10T00:18:40;94787.00;;;9.14;100.00
11099;BME280;12223;42.650;23.364;2023-05-10T00:21:07;94788.00;;;9.13;100.00
11099;BME280;12223;42.650;23.364;2023-05-10T00:23:33;94797.13;;;9.11;100.00
11099;BME280;12223;42.650;23.364;2023-05-10T00:26:00;94803.84;;;9.07;100.00
11099;BME280;12223;42.650;23.364;2023-05-10T00:28:29;94797.16;;;9.04;100.00
11099;BME280;12223;42.650;23.364;2023-05-10T00:30:55;94780.59;;;8.97;100.00
11099;BME280;12223;42.650;23.364;2023-05-10T00:33:22;94781.31;;;9.11;100.00
11099;BME280;12223;42.650;23.364;2023-05-10T00:35:49;94799.31;;;9.20;100.00
11099;BME280;12223;42.650;23.364;2023-05-10T00:38:16;94797.09;;;9.17;100.00
11099;BME280;12223;42.650;23.364;2023-05-10T00:40:42;94799.69;;;9.24;100.00
11099;BME280;12223;42.650;23.364;2023-05-10T00:43:09;94806.63;;;9.18;100.00
11099;BME280;12223;42.650;23.364;2023-05-10T00:45:39;94795.25;;;9.24;100.00
11099;BME280;12223;42.650;23.364;2023-05-10T00:48:06;94807.47;;;9.12;100.00
11099;BME280;12223;42.650;23.364;2023-05-10T00:50:34;94810.50;;;9.16;100.00
11099;BME280;12223;42.650;23.364;2023-05-10T00:53:02;94794.47;;;9.17;100.00
11099;BME280;12223;42.650;23.364;2023-05-10T00:55:29;94799.56;;;9.12;100.00
11099;BME280;12223;42.650;23.364;2023-05-10T00:57:56;94795.72;;;9.08;100.00
11099;BME280;12223;42.650;23.364;2023-05-10T01:00:23;94808.50;;;9.05;100.00
11099;BME280;12223;42.650;23.364;2023-05-10T01:02:53;94787.66;;;9.03;100.00
11099;BME280;12223;42.650;23.364;2023-05-10T01:05:20;94793.13;;;9.02;100.00
11099;BME280;12223;42.650;23.364;2023-05-10T01:07:47;94806.09;;;9.03;100.00
11099;BME280;12223;42.650;23.364;2023-05-10T01:10:14;94811.75;;;9.07;100.00
11099;BME280;12223;42.650;23.364;2023-05-10T01:12:42;94805.44;;;9.14;100.00
11099;BME280;12223;42.650;23.364;2023-05-10T01:15:11;94811.50;;;9.15;100.00
11099;BME280;12223;42.650;23.364;2023-05-10T01:17:40;94804.81;;;9.12;100.00
11099;BME280;12223;42.650;23.364;2023-05-10T01:20:11;94814.56;;;9.05;100.00
11099;BME280;12223;42.650;23.364;2023-05-10T01:23:04;94810.13;;;8.99;100.00
11099;BME280;12223;42.650;23.364;2023-05-10T01:32:22;94821.91;;;8.97;100.00
11099;BME280;12223;42.650;23.364;2023-05-10T01:35:00;94817.69;;;8.89;100.00
11099;BME280;12223;42.650;23.364;2023-05-10T01:37:33;94813.88;;;8.85;100.00
11099;BME280;12223;42.650;23.364;2023-05-10T01:40:07;94814.63;;;8.92;100.00
11099;BME280;12223;42.650;23.364;2023-05-10T01:42:40;94827.38;;;8.95;100.00
11099;BME280;12223;42.650;23.364;2023-05-10T01:45:14;94834.84;;;8.98;100.00
11099;BME280;12223;42.650;23.364;2023-05-10T01:47:50;94836.31;;;8.94;100.00
11099;BME280;12223;42.650;23.364;2023-05-10T01:50:24;94844.03;;;8.89;100.00
11099;BME280;12223;42.650;23.364;2023-05-10T01:52:57;94859.22;;;8.80;100.00
11099;BME280;12223;42.650;23.364;2023-05-10T01:55:27;94871.00;;;8.78;100.00
11099;BME280;12223;42.650;23.364;2023-05-10T01:58:00;94875.22;;;8.79;100.00
11099;BME280;12223;42.650;23.364;2023-05-10T02:00:29;94879.09;;;8.76;100.00
11099;BME280;12223;42.650;23.364;2023-05-10T02:02:59;94887.81;;;8.70;100.00
11099;BME280;12223;42.650;23.364;2023-05-10T02:05:28;94886.00;;;8.64;100.00
11099;BME280;12223;42.650;23.364;2023-05-10T02:07:57;94886.81;;;8.58;100.00
11099;BME280;12223;42.650;23.364;2023-05-10T02:10:26;94890.66;;;8.49;100.00
11099;BME280;12223;42.650;23.364;2023-05-10T02:12:55;94884.81;;;8.47;100.00
11099;BME280;12223;42.650;23.364;2023-05-10T02:15:25;94909.03;;;8.29;100.00
11099;BME280;12223;42.650;23.364;2023-05-10T02:17:54;94903.38;;;8.13;100.00
11099;BME280;12223;42.650;23.364;2023-05-10T02:20:25;94917.53;;;8.12;100.00
11099;BME280;12223;42.650;23.364;2023-05-10T02:23:03;94928.47;;;8.08;100.00
11099;BME280;12223;42.650;23.364;2023-05-10T02:25:31;94926.38;;;7.91;100.00
11099;BME280;12223;42.650;23.364;2023-05-10T02:28:01;94936.31;;;7.89;100.00
11099;BME280;12223;42.650;23.364;2023-05-10T02:30:31;94951.25;;;7.82;100.00
11099;BME280;12223;42.650;23.364;2023-05-10T02:33:01;94955.06;;;7.79;100.00
11099;BME280;12223;42.650;23.364;2023-05-10T02:35:34;94955.88;;;7.80;100.00
11099;BME280;12223;42.650;23.364;2023-05-10T02:38:09;94951.00;;;7.63;100.00
11099;BME280;12223;42.650;23.364;2023-05-10T02:40:37;94949.09;;;7.44;100.00
11099;BME280;12223;42.650;23.364;2023-05-10T02:43:05;94948.09;;;7.45;100.00
11099;BME280;12223;42.650;23.364;2023-05-10T02:45:35;94952.91;;;7.42;100.00
11099;BME280;12223;42.650;23.364;2023-05-10T02:48:04;94947.81;;;7.34;100.00
11099;BME280;12223;42.650;23.364;2023-05-10T02:50:35;94939.19;;;7.40;100.00
11099;BME280;12223;42.650;23.364;2023-05-10T02:53:08;94937.13;;;7.42;100.00
11099;BME280;12223;42.650;23.364;2023-05-10T02:55:40;94934.25;;;7.30;100.00
11099;BME280;12223;42.650;23.364;2023-05-10T02:58:07;94923.69;;;7.17;100.00
11099;BME280;12223;42.650;23.364;2023-05-10T03:00:34;94930.78;;;7.23;100.00
11099;BME280;12223;42.650;23.364;2023-05-10T03:03:02;94938.44;;;7.18;100.00
11099;BME280;12223;42.650;23.364;2023-05-10T03:05:29;94938.28;;;7.26;100.00
11099;BME280;12223;42.650;23.364;2023-05-10T03:07:59;94926.34;;;7.23;100.00
11099;BME280;12223;42.650;23.364;2023-05-10T03:10:30;94928.59;;;7.26;100.00
11099;BME280;12223;42.650;23.364;2023-05-10T03:13:07;94933.88;;;7.33;100.00
11099;BME280;12223;42.650;23.364;2023-05-10T03:15:47;94941.53;;;7.28;100.00
11099;BME280;12223;42.650;23.364;2023-05-10T03:18:18;94928.56;;;7.20;100.00
11099;BME280;12223;42.650;23.364;2023-05-10T03:20:48;94945.50;;;7.17;100.00
11099;BME280;12223;42.650;23.364;2023-05-10T03:23:23;94942.50;;;7.20;100.00
11099;BME280;12223;42.650;23.364;2023-05-10T03:25:53;94945.75;;;7.22;100.00
11099;BME280;12223;42.650;23.364;2023-05-10T03:28:21;94947.97;;;7.19;100.00
11099;BME280;12223;42.650;23.364;2023-05-10T03:30:49;94946.41;;;7.31;100.00
11099;BME280;12223;42.650;23.364;2023-05-10T03:33:16;94947.44;;;7.37;100.00
11099;BME280;12223;42.650;23.364;2023-05-10T03:35:43;94952.66;;;7.30;100.00
11099;BME280;12223;42.650;23.364;2023-05-10T03:38:11;94950.66;;;7.32;100.00
11099;BME280;12223;42.650;23.364;2023-05-10T03:40:40;94957.34;;;7.41;100.00
11099;BME280;12223;42.650;23.364;2023-05-10T03:43:12;94955.16;;;7.45;100.00
11099;BME280;12223;42.650;23.364;2023-05-10T03:45:39;94948.25;;;7.37;100.00
11099;BME280;12223;42.650;23.364;2023-05-10T03:48:07;94952.91;;;7.42;100.00
11099;BME280;12223;42.650;23.364;2023-05-10T03:50:34;94954.53;;;7.43;100.00
11099;BME280;12223;42.650;23.364;2023-05-10T03:53:03;94969.19;;;7.65;100.00
11099;BME280;12223;42.650;23.364;2023-05-10T03:55:30;94969.38;;;7.63;100.00
11099;BME280;12223;42.650;23.364;2023-05-10T03:58:01;94967.00;;;7.75;100.00
11099;BME280;12223;42.650;23.364;2023-05-10T04:00:28;94963.94;;;7.72;100.00
11099;BME280;12223;42.650;23.364;2023-05-10T04:02:55;94976.09;;;7.73;100.00
11099;BME280;12223;42.650;23.364;2023-05-10T04:05:22;94979.72;;;7.72;100.00
11099;BME280;12223;42.650;23.364;2023-05-10T04:07:48;94979.16;;;7.76;100.00
11099;BME280;12223;42.650;23.364;2023-05-10T04:10:16;94963.97;;;7.78;100.00
11099;BME280;12223;42.650;23.364;2023-05-10T04:12:43;94979.34;;;7.75;100.00
11099;BME280;12223;42.650;23.364;2023-05-10T04:15:26;94973.88;;;7.76;100.00
11099;BME280;12223;42.650;23.364;2023-05-10T04:17:53;94970.00;;;7.72;100.00
11099;BME280;12223;42.650;23.364;2023-05-10T04:20:20;94980.53;;;7.72;100.00
11099;BME280;12223;42.650;23.364;2023-05-10T04:22:47;94967.56;;;7.64;100.00
11099;BME280;12223;42.650;23.364;2023-05-10T04:25:14;94970.81;;;7.73;100.00
11099;BME280;12223;42.650;23.364;2023-05-10T04:27:41;94975.88;;;7.67;100.00
11099;BME280;12223;42.650;23.364;2023-05-10T04:30:09;94970.41;;;7.69;100.00
11099;BME280;12223;42.650;23.364;2023-05-10T04:32:37;94976.84;;;7.60;100.00
11099;BME280;12223;42.650;23.364;2023-05-10T04:35:05;94971.59;;;7.60;100.00
11099;BME280;12223;42.650;23.364;2023-05-10T04:37:32;94972.00;;;7.57;100.00
11099;BME280;12223;42.650;23.364;2023-05-10T04:39:59;94979.72;;;7.72;100.00
11099;BME280;12223;42.650;23.364;2023-05-10T04:42:26;94969.69;;;7.88;100.00
11099;BME280;12223;42.650;23.364;2023-05-10T04:44:53;94975.78;;;7.95;100.00
11099;BME280;12223;42.650;23.364;2023-05-10T04:47:20;94981.88;;;8.02;100.00
11099;BME280;12223;42.650;23.364;2023-05-10T04:49:48;94983.00;;;7.80;100.00
11099;BME280;12223;42.650;23.364;2023-05-10T04:52:15;94974.47;;;7.78;100.00
11099;BME280;12223;42.650;23.364;2023-05-10T04:54:43;94970.66;;;7.81;100.00
11099;BME280;12223;42.650;23.364;2023-05-10T04:57:09;94958.31;;;7.81;100.00
11099;BME280;12223;42.650;23.364;2023-05-10T04:59:36;94971.88;;;7.85;100.00
11099;BME280;12223;42.650;23.364;2023-05-10T05:02:03;94962.16;;;7.79;100.00
11099;BME280;12223;42.650;23.364;2023-05-10T05:04:31;94974.88;;;7.68;100.00
11099;BME280;12223;42.650;23.364;2023-05-10T05:06:59;94974.06;;;7.68;100.00
11099;BME280;12223;42.650;23.364;2023-05-10T05:09:26;94969.41;;;7.70;100.00
11099;BME280;12223;42.650;23.364;2023-05-10T05:11:52;94969.47;;;7.83;100.00
11099;BME280;12223;42.650;23.364;2023-05-10T05:14:19;94976.53;;;7.76;100.00
11099;BME280;12223;42.650;23.364;2023-05-10T05:16:46;94964.53;;;7.67;100.00
11099;BME280;12223;42.650;23.364;2023-05-10T05:19:13;94966.31;;;7.60;100.00
11099;BME280;12223;42.650;23.364;2023-05-10T05:21:40;94975.59;;;7.49;100.00
11099;BME280;12223;42.650;23.364;2023-05-10T05:24:09;94961.03;;;7.53;100.00
11099;BME280;12223;42.650;23.364;2023-05-10T05:26:38;94963.44;;;7.48;100.00
11099;BME280;12223;42.650;23.364;2023-05-10T05:29:04;94953.44;;;7.65;100.00
11099;BME280;12223;42.650;23.364;2023-05-10T05:31:32;94964.78;;;7.79;100.00
11099;BME280;12223;42.650;23.364;2023-05-10T05:34:00;94974.53;;;7.91;100.00
11099;BME280;12223;42.650;23.364;2023-05-10T05:36:27;94978.00;;;8.05;100.00
11099;BME280;12223;42.650;23.364;2023-05-10T05:38:54;94977.41;;;8.09;100.00
11099;BME280;12223;42.650;23.364;2023-05-10T05:41:22;94981.25;;;8.07;100.00
11099;BME280;12223;42.650;23.364;2023-05-10T05:43:49;94982.44;;;7.98;100.00
11099;BME280;12223;42.650;23.364;2023-05-10T05:46:17;94981.19;;;7.87;100.00
11099;BME280;12223;42.650;23.364;2023-05-10T05:48:44;94968.88;;;7.94;100.00
11099;BME280;12223;42.650;23.364;2023-05-10T05:51:12;94981.00;;;7.89;100.00
11099;BME280;12223;42.650;23.364;2023-05-10T05:53:39;94972.13;;;7.90;100.00
11099;BME280;12223;42.650;23.364;2023-05-10T05:56:06;94972.13;;;7.90;100.00
11099;BME280;12223;42.650;23.364;2023-05-10T05:58:34;94969.06;;;7.93;100.00
11099;BME280;12223;42.650;23.364;2023-05-10T06:01:01;94968.25;;;7.92;100.00
11099;BME280;12223;42.650;23.364;2023-05-10T06:03:28;94962.22;;;7.98;100.00
11099;BME280;12223;42.650;23.364;2023-05-10T06:05:55;94971.13;;;8.11;100.00
11099;BME280;12223;42.650;23.364;2023-05-10T06:08:23;94959.25;;;8.21;100.00
11099;BME280;12223;42.650;23.364;2023-05-10T06:10:51;94954.38;;;8.25;100.00
11099;BME280;12223;42.650;23.364;2023-05-10T06:13:18;94963.72;;;8.27;100.00
11099;BME280;12223;42.650;23.364;2023-05-10T06:15:46;94961.66;;;8.29;100.00
11099;BME280;12223;42.650;23.364;2023-05-10T06:18:13;94968.59;;;8.30;100.00
11099;BME280;12223;42.650;23.364;2023-05-10T06:20:41;94972.03;;;8.37;100.00
11099;BME280;12223;42.650;23.364;2023-05-10T06:23:07;94988.03;;;8.36;100.00
11099;BME280;12223;42.650;23.364;2023-05-10T06:25:34;94989.66;;;8.37;100.00
11099;BME280;12223;42.650;23.364;2023-05-10T06:28:02;94996.72;;;8.36;100.00
11099;BME280;12223;42.650;23.364;2023-05-10T06:30:29;95002.19;;;8.41;100.00
11099;BME280;12223;42.650;23.364;2023-05-10T06:32:57;94996.13;;;8.47;100.00
11099;BME280;12223;42.650;23.364;2023-05-10T06:35:24;95018.78;;;8.42;100.00
11099;BME280;12223;42.650;23.364;2023-05-10T06:37:52;95000.78;;;8.39;100.00
11099;BME280;12223;42.650;23.364;2023-05-10T06:40:19;95012.94;;;8.40;100.00
11099;BME280;12223;42.650;23.364;2023-05-10T06:42:46;95011.50;;;8.31;100.00
11099;BME280;12223;42.650;23.364;2023-05-10T06:45:13;95008.47;;;8.34;100.00
11099;BME280;12223;42.650;23.364;2023-05-10T06:47:41;95016.38;;;8.40;100.00
11099;BME280;12223;42.650;23.364;2023-05-10T06:50:10;95015.59;;;8.46;100.00
11099;BME280;12223;42.650;23.364;2023-05-10T06:52:37;95013.97;;;8.52;100.00
11099;BME280;12223;42.650;23.364;2023-05-10T06:55:05;95020.25;;;8.51;100.00
11099;BME280;12223;42.650;23.364;2023-05-10T06:57:32;95023.50;;;8.53;100.00
11099;BME280;12223;42.650;23.364;2023-05-10T06:59:59;95028.53;;;8.48;100.00
11099;BME280;12223;42.650;23.364;2023-05-10T07:02:26;95030.94;;;8.43;100.00
11099;BME280;12223;42.650;23.364;2023-05-10T07:04:53;95028.16;;;8.51;100.00
11099;BME280;12223;42.650;23.364;2023-05-10T07:07:21;95029.16;;;8.57;100.00
11099;BME280;12223;42.650;23.364;2023-05-10T07:09:48;95032.38;;;8.45;100.00
11099;BME280;12223;42.650;23.364;2023-05-10T07:12:15;95036.44;;;8.55;100.00
11099;BME280;12223;42.650;23.364;2023-05-10T07:14:42;95033.59;;;8.50;100.00
11099;BME280;12223;42.650;23.364;2023-05-10T07:17:09;95029.53;;;8.54;100.00
11099;BME280;12223;42.650;23.364;2023-05-10T07:19:35;95027.72;;;8.61;100.00
11099;BME280;12223;42.650;23.364;2023-05-10T07:22:02;95032.41;;;8.59;100.00
11099;BME280;12223;42.650;23.364;2023-05-10T07:24:31;95043.53;;;8.67;100.00
11099;BME280;12223;42.650;23.364;2023-05-10T07:26:58;95031.81;;;8.70;100.00
11099;BME280;12223;42.650;23.364;2023-05-10T07:29:25;95039.91;;;8.75;100.00
11099;BME280;12223;42.650;23.364;2023-05-10T07:31:52;95039.09;;;8.68;100.00
11099;BME280;12223;42.650;23.364;2023-05-10T07:34:18;95048.00;;;8.80;100.00
11099;BME280;12223;42.650;23.364;2023-05-10T07:36:45;95046.00;;;8.82;100.00
11099;BME280;12223;42.650;23.364;2023-05-10T07:39:14;95053.91;;;8.82;100.00
11099;BME280;12223;42.650;23.364;2023-05-10T07:41:42;95054.91;;;8.81;100.00
11099;BME280;12223;42.650;23.364;2023-05-10T07:44:09;95056.34;;;8.77;100.00
11099;BME280;12223;42.650;23.364;2023-05-10T07:46:35;95063.41;;;8.76;100.00
11099;BME280;12223;42.650;23.364;2023-05-10T07:49:02;95057.53;;;8.81;100.00
11099;BME280;12223;42.650;23.364;2023-05-10T07:51:29;95051.25;;;8.69;100.00
11099;BME280;12223;42.650;23.364;2023-05-10T07:53:56;95052.69;;;8.78;100.00
11099;BME280;12223;42.650;23.364;2023-05-10T07:56:25;95054.09;;;8.80;100.00
11099;BME280;12223;42.650;23.364;2023-05-10T07:58:56;95051.25;;;8.82;100.00
11099;BME280;12223;42.650;23.364;2023-05-10T08:01:23;95059.97;;;8.76;100.00
11099;BME280;12223;42.650;23.364;2023-05-10T08:03:50;95054.09;;;8.87;100.00
11099;BME280;12223;42.650;23.364;2023-05-10T08:06:19;95060.59;;;8.78;100.00
11099;BME280;12223;42.650;23.364;2023-05-10T08:08:46;95062.00;;;8.80;100.00
11099;BME280;12223;42.650;23.364;2023-05-10T08:11:15;95061.41;;;8.85;100.00
11099;BME280;12223;42.650;23.364;2023-05-10T08:13:41;95068.50;;;8.98;100.00
11099;BME280;12223;42.650;23.364;2023-05-10T08:16:10;95063.81;;;8.93;100.00
11099;BME280;12223;42.650;23.364;2023-05-10T08:18:37;95068.28;;;8.99;100.00
11099;BME280;12223;42.650;23.364;2023-05-10T08:21:03;95064.25;;;9.10;100.00
11099;BME280;12223;42.650;23.364;2023-05-10T08:23:30;95073.75;;;9.17;100.00
11099;BME280;12223;42.650;23.364;2023-05-10T08:25:57;95067.91;;;9.15;100.00
11099;BME280;12223;42.650;23.364;2023-05-10T08:28:24;95079.25;;;9.36;100.00
11099;BME280;12223;42.650;23.364;2023-05-10T08:30:51;95077.19;;;9.38;100.00
11099;BME280;12223;42.650;23.364;2023-05-10T08:33:19;95074.75;;;9.36;100.00
11099;BME280;12223;42.650;23.364;2023-05-10T08:35:46;95067.47;;;9.18;100.00
11099;BME280;12223;42.650;23.364;2023-05-10T08:38:12;95079.66;;;9.19;100.00
11099;BME280;12223;42.650;23.364;2023-05-10T08:40:41;95076.00;;;9.40;100.00
11099;BME280;12223;42.650;23.364;2023-05-10T08:43:10;95075.38;;;9.38;100.00
11099;BME280;12223;42.650;23.364;2023-05-10T08:45:38;95081.66;;;9.37;100.00
11099;BME280;12223;42.650;23.364;2023-05-10T08:48:06;95078.44;;;9.42;100.00
11099;BME280;12223;42.650;23.364;2023-05-10T08:50:35;95070.28;;;9.50;100.00
11099;BME280;12223;42.650;23.364;2023-05-10T08:53:06;95065.25;;;9.42;100.00
11099;BME280;12223;42.650;23.364;2023-05-10T08:55:33;95074.75;;;9.43;100.00
11099;BME280;12223;42.650;23.364;2023-05-10T08:58:02;95073.53;;;9.52;100.00
11099;BME280;12223;42.650;23.364;2023-05-10T09:00:28;95073.13;;;9.55;100.00
11099;BME280;12223;42.650;23.364;2023-05-10T09:02:57;95075.16;;;9.59;100.00
11099;BME280;12223;42.650;23.364;2023-05-10T09:05:24;95077.38;;;9.56;100.00
11099;BME280;12223;42.650;23.364;2023-05-10T09:07:52;95077.19;;;9.57;100.00
11099;BME280;12223;42.650;23.364;2023-05-10T09:10:19;95077.38;;;9.56;100.00
11099;BME280;12223;42.650;23.364;2023-05-10T09:12:48;95075.97;;;9.53;100.00
11099;BME280;12223;42.650;23.364;2023-05-10T09:15:15;95075.97;;;9.60;100.00
11099;BME280;12223;42.650;23.364;2023-05-10T09:17:45;95070.28;;;9.56;100.00
11099;BME280;12223;42.650;23.364;2023-05-10T09:20:12;95066.16;;;9.80;100.00
11099;BME280;12223;42.650;23.364;2023-05-10T09:22:39;95066.16;;;9.80;100.00
11099;BME280;12223;42.650;23.364;2023-05-10T09:25:10;95060.03;;;9.93;100.00
11099;BME280;12223;42.650;23.364;2023-05-10T09:27:38;95075.22;;;10.11;100.00
11099;BME280;12223;42.650;23.364;2023-05-10T09:30:08;95066.88;;;10.14;100.00
11099;BME280;12223;42.650;23.364;2023-05-10T09:32:37;95065.47;;;10.24;100.00
11099;BME280;12223;42.650;23.364;2023-05-10T09:35:08;95065.63;;;10.36;100.00
11099;BME280;12223;42.650;23.364;2023-05-10T09:37:35;95056.41;;;10.45;100.00
11099;BME280;12223;42.650;23.364;2023-05-10T09:40:05;95069.13;;;10.61;100.00
11099;BME280;12223;42.650;23.364;2023-05-10T09:42:34;95073.84;;;10.53;100.00
11099;BME280;12223;42.650;23.364;2023-05-10T09:45:02;95068.84;;;10.38;100.00
11099;BME280;12223;42.650;23.364;2023-05-10T09:47:31;95070.09;;;10.35;100.00
11099;BME280;12223;42.650;23.364;2023-05-10T09:49:59;95067.88;;;10.26;100.00
11099;BME280;12223;42.650;23.364;2023-05-10T09:52:29;95063.19;;;10.28;100.00
11099;BME280;12223;42.650;23.364;2023-05-10T09:54:55;95059.13;;;10.32;100.00
11099;BME280;12223;42.650;23.364;2023-05-10T09:57:24;95062.75;;;10.31;100.00
11099;BME280;12223;42.650;23.364;2023-05-10T09:59:53;95063.00;;;10.29;100.00
11099;BME280;12223;42.650;23.364;2023-05-10T10:02:20;95056.63;;;10.43;100.00
11099;BME280;12223;42.650;23.364;2023-05-10T10:04:49;95060.84;;;10.51;100.00
11099;BME280;12223;42.650;23.364;2023-05-10T10:07:22;95052.06;;;10.57;100.00
11099;BME280;12223;42.650;23.364;2023-05-10T10:09:50;95051.50;;;10.55;100.00
11099;BME280;12223;42.650;23.364;2023-05-10T10:12:17;95045.53;;;10.66;100.00
11099;BME280;12223;42.650;23.364;2023-05-10T10:14:45;95046.31;;;10.73;100.00
11099;BME280;12223;42.650;23.364;2023-05-10T10:17:14;95045.28;;;10.74;100.00
11099;BME280;12223;42.650;23.364;2023-05-10T10:19:41;95039.41;;;10.72;100.00
11099;BME280;12223;42.650;23.364;2023-05-10T10:22:08;95044.00;;;10.83;100.00
11099;BME280;12223;42.650;23.364;2023-05-10T10:24:37;95030.69;;;10.97;100.00
11099;BME280;12223;42.650;23.364;2023-05-10T10:27:14;95051.28;;;11.13;100.00
11099;BME280;12223;42.650;23.364;2023-05-10T10:29:51;95045.31;;;11.24;100.00
11099;BME280;12223;42.650;23.364;2023-05-10T10:32:26;95045.53;;;11.22;100.00
11099;BME280;12223;42.650;23.364;2023-05-10T10:34:56;95044.59;;;11.10;100.00
11099;BME280;12223;42.650;23.364;2023-05-10T10:37:24;95050.03;;;11.15;100.00
11099;BME280;12223;42.650;23.364;2023-05-10T10:40:23;95050.81;;;10.98;100.00
11099;BME280;12223;42.650;23.364;2023-05-10T10:42:50;95045.03;;;10.76;100.00
11099;BME280;12223;42.650;23.364;2023-05-10T10:45:17;95050.84;;;10.91;100.00
11099;BME280;12223;42.650;23.364;2023-05-10T10:47:46;95047.03;;;11.12;100.00
11099;BME280;12223;42.650;23.364;2023-05-10T10:50:13;95042.06;;;11.22;100.00
11099;BME280;12223;42.650;23.364;2023-05-10T10:52:42;95030.84;;;11.26;100.00
11099;BME280;12223;42.650;23.364;2023-05-10T10:55:10;95049.38;;;11.45;100.00
11099;BME280;12223;42.650;23.364;2023-05-10T10:57:45;95042.03;;;11.47;100.00
11099;BME280;12223;42.650;23.364;2023-05-10T11:00:27;95052.13;;;11.56;100.00
11099;BME280;12223;42.650;23.364;2023-05-10T11:02:57;95053.47;;;11.65;100.00
11099;BME280;12223;42.650;23.364;2023-05-10T11:05:42;95056.22;;;11.52;100.00
11099;BME280;12223;42.650;23.364;2023-05-10T11:08:15;95050.38;;;11.50;100.00
11099;BME280;12223;42.650;23.364;2023-05-10T11:11:02;95054.25;;;11.48;100.00
11099;BME280;12223;42.650;23.364;2023-05-10T11:13:32;95044.91;;;11.45;100.00
11099;BME280;12223;42.650;23.364;2023-05-10T11:16:10;95038.31;;;11.54;100.00
11099;BME280;12223;42.650;23.364;2023-05-10T11:18:38;95043.81;;;11.53;100.00
11099;BME280;12223;42.650;23.364;2023-05-10T11:21:09;95046.94;;;11.68;100.00
11099;BME280;12223;42.650;23.364;2023-05-10T11:23:50;95043.50;;;11.43;100.00
11099;BME280;12223;42.650;23.364;2023-05-10T11:26:17;95050.69;;;11.36;100.00
11099;BME280;12223;42.650;23.364;2023-05-10T11:28:45;95057.66;;;11.30;100.00
11099;BME280;12223;42.650;23.364;2023-05-10T11:31:13;95050.91;;;11.34;100.00
11099;BME280;12223;42.650;23.364;2023-05-10T11:33:45;95051.38;;;11.49;100.00
11099;BME280;12223;42.650;23.364;2023-05-10T11:36:12;95061.03;;;11.62;100.00
11099;BME280;12223;42.650;23.364;2023-05-10T11:38:39;95052.50;;;11.60;100.00
11099;BME280;12223;42.650;23.364;2023-05-10T11:41:08;95049.78;;;11.66;100.00
11099;BME280;12223;42.650;23.364;2023-05-10T11:43:34;95055.75;;;11.62;100.00
11099;BME280;12223;42.650;23.364;2023-05-10T11:46:04;95053.72;;;11.57;100.00
11099;BME280;12223;42.650;23.364;2023-05-10T11:48:31;95050.56;;;11.49;100.00
11099;BME280;12223;42.650;23.364;2023-05-10T11:51:00;95054.03;;;11.49;100.00
11099;BME280;12223;42.650;23.364;2023-05-10T11:53:27;95052.53;;;11.35;100.00
11099;BME280;12223;42.650;23.364;2023-05-10T11:55:54;95050.75;;;11.29;100.00
11099;BME280;12223;42.650;23.364;2023-05-10T11:58:23;95043.28;;;11.19;100.00
11099;BME280;12223;42.650;23.364;2023-05-10T12:00:50;95049.94;;;11.28;100.00
11099;BME280;12223;42.650;23.364;2023-05-10T12:03:17;95044.88;;;11.27;100.00
11099;BME280;12223;42.650;23.364;2023-05-10T12:05:44;95026.53;;;11.07;100.00
11099;BME280;12223;42.650;23.364;2023-05-10T12:08:13;95040.78;;;11.31;100.00
11099;BME280;12223;42.650;23.364;2023-05-10T12:10:40;95039.47;;;11.40;100.00
11099;BME280;12223;42.650;23.364;2023-05-10T12:13:11;95026.94;;;11.54;100.00
11099;BME280;12223;42.650;23.364;2023-05-10T12:15:39;95038.47;;;11.59;100.00
11099;BME280;12223;42.650;23.364;2023-05-10T12:18:08;95028.81;;;11.47;100.00
11099;BME280;12223;42.650;23.364;2023-05-10T12:20:36;95035.66;;;11.54;100.00
11099;BME280;12223;42.650;23.364;2023-05-10T12:23:03;95036.22;;;11.63;100.00
11099;BME280;12223;42.650;23.364;2023-05-10T12:25:33;95025.31;;;11.71;100.00
11099;BME280;12223;42.650;23.364;2023-05-10T12:28:03;95029.03;;;11.88;100.00
11099;BME280;12223;42.650;23.364;2023-05-10T12:30:32;95027.34;;;11.94;100.00
11099;BME280;12223;42.650;23.364;2023-05-10T12:33:01;95022.47;;;11.91;100.00
11099;BME280;12223;42.650;23.364;2023-05-10T12:35:30;95016.16;;;12.10;100.00
11099;BME280;12223;42.650;23.364;2023-05-10T12:37:57;95007.44;;;12.21;100.00
11099;BME280;12223;42.650;23.364;2023-05-10T12:40:24;95025.16;;;12.39;100.00
11099;BME280;12223;42.650;23.364;2023-05-10T12:42:53;95013.47;;;12.28;100.00
11099;BME280;12223;42.650;23.364;2023-05-10T12:45:20;95011.94;;;12.21;100.00
11099;BME280;12223;42.650;23.364;2023-05-10T12:47:48;95001.81;;;12.18;100.00
11099;BME280;12223;42.650;23.364;2023-05-10T12:50:15;95017.47;;;12.19;100.00
11099;BME280;12223;42.650;23.364;2023-05-10T12:52:42;95011.00;;;12.15;100.00
11099;BME280;12223;42.650;23.364;2023-05-10T12:55:08;95006.41;;;11.92;100.00
11099;BME280;12223;42.650;23.364;2023-05-10T12:57:35;95007.34;;;11.98;100.00
11099;BME280;12223;42.650;23.364;2023-05-10T13:00:05;95013.16;;;11.88;100.00
11099;BME280;12223;42.650;23.364;2023-05-10T13:02:32;94999.03;;;11.94;100.00